Time;durP1;ratioP1;P1;durP2;ratioP2;P2;SDS_P1;SDS_P2;PMS_P1;PMS_P2;Temp;Humidity;BMP_temperature;BMP_pressure;BME280_temperature;BME280_humidity;BME280_pressure;Samples;Min_cycle;Max_cycle;Signal;HPM_P1;HPM_P2
2022/02/05 00:01:52;;;;;;;42.40;25.90;;;;;;;12.68;60.43;101312.00;4931604;29;20044;-80
2022/02/05 00:04:20;;;;;;;49.17;30.33;;;;;;;12.64;60.44;101311.69;4931984;29;20408;-80
2022/02/05 00:06:52;;;;;;;26.30;17.33;;;;;;;12.53;60.48;101305.22;4934673;29;20131;-80
2022/02/05 00:39:31;;;;;;;23.30;15.07;;;;;;;12.17;60.73;101311.81;4931791;29;20135;-76
2022/02/05 00:42:11;;;;;;;36.07;20.93;;;;;;;12.33;60.86;101338.78;4934750;29;20103;-77
2022/02/05 00:44:38;;;;;;;28.13;17.37;;;;;;;12.11;60.83;101304.53;4926525;29;20091;-74
2022/02/05 00:47:05;;;;;;;26.83;14.60;;;;;;;12.31;60.83;101335.41;4938227;29;20138;-76
2022/02/05 00:49:32;;;;;;;23.17;17.83;;;;;;;12.30;60.85;101339.31;4939413;29;20137;-76
2022/02/05 00:52:07;;;;;;;26.10;16.93;;;;;;;12.30;61.04;101336.50;4939278;29;20542;-78
2022/02/05 00:54:34;;;;;;;19.53;14.43;;;;;;;12.26;60.90;101327.81;4934694;29;20075;-74
2022/02/05 00:59:28;;;;;;;22.20;15.20;;;;;;;12.19;61.12;101310.41;4939668;29;20135;-75
2022/02/05 01:01:56;;;;;;;20.97;14.40;;;;;;;12.09;61.16;101302.81;4939477;29;20566;-73
2022/02/05 01:04:23;;;;;;;23.83;13.57;;;;;;;12.24;61.02;101318.88;4936948;29;20054;-75
2022/02/05 01:06:50;;;;;;;25.53;15.23;;;;;;;12.25;60.79;101330.91;4932560;29;20086;-73
2022/02/05 01:09:23;;;;;;;18.37;14.63;;;;;;;12.21;60.94;101330.59;4939792;29;20186;-76
2022/02/05 01:11:51;;;;;;;21.73;14.07;;;;;;;11.95;61.33;101292.38;4945954;29;20059;-76
2022/02/05 01:14:28;;;;;;;26.20;14.03;;;;;;;12.15;61.16;101319.66;4939234;29;20080;-77
2022/02/05 01:20:32;;;;;;;22.03;13.30;;;;;;;11.46;60.97;101217.94;4949425;29;20495;-76
2022/02/05 01:22:12;;;;;;;19.70;12.77;;;;;;;11.98;61.06;101312.28;4941618;29;20111;-71
2022/02/05 01:24:40;;;;;;;25.87;14.70;;;;;;;11.76;61.35;101295.63;4937931;29;20066;-72
2022/02/05 01:27:12;;;;;;;25.97;14.10;;;;;;;11.97;61.40;101329.34;4936290;28;20528;-71
2022/02/05 01:32:12;;;;;;;21.67;13.83;;;;;;;12.01;61.48;101320.13;4931475;29;20138;-73
2022/02/05 01:34:52;;;;;;;25.63;14.67;;;;;;;11.70;61.60;101273.47;4949210;29;20070;-82
2022/02/05 01:51:41;;;;;;;23.50;14.40;;;;;;;11.78;61.23;101332.56;4948501;29;20050;-79
2022/02/05 01:56:44;;;;;;;24.17;15.73;;;;;;;11.67;61.40;101330.81;4945741;29;20078;-74
2022/02/05 01:59:20;;;;;;;28.93;15.23;;;;;;;11.51;61.48;101307.47;4940470;29;20142;-80
2022/02/05 02:04:50;;;;;;;37.60;16.37;;;;;;;11.61;61.83;101323.47;4941557;29;20055;-76
2022/02/05 02:13:52;;;;;;;29.63;13.83;;;;;;;11.50;62.21;101314.19;4957163;29;20047;-83
2022/02/05 02:21:20;;;;;;;22.93;14.17;;;;;;;11.57;62.47;101328.78;4945943;29;20082;-77
2022/02/05 02:24:06;;;;;;;22.67;14.77;;;;;;;11.60;62.70;101330.19;4939652;29;20059;-78
2022/02/05 02:29:32;;;;;;;24.77;14.10;;;;;;;11.62;62.68;101325.16;4965538;28;20114;-84
2022/02/05 02:31:59;;;;;;;18.10;13.37;;;;;;;11.62;62.63;101323.22;4937342;29;20087;-82
2022/02/05 02:34:34;;;;;;;26.13;15.07;;;;;;;11.54;62.74;101303.28;4939459;29;20510;-83
2022/02/05 02:37:20;;;;;;;25.37;15.90;;;;;;;11.39;62.81;101271.31;4906034;29;20126;-76
2022/02/05 02:42:24;;;;;;;24.10;15.77;;;;;;;11.70;62.40;101318.25;4931650;29;20086;-75
2022/02/05 02:44:57;;;;;;;35.17;17.73;;;;;;;11.69;62.51;101316.53;4936084;29;20138;-76
2022/02/05 02:47:42;;;;;;;31.13;16.57;;;;;;;11.52;62.40;101289.59;4929740;29;20059;-75
2022/02/05 02:50:28;;;;;;;32.07;15.30;;;;;;;11.57;62.17;101298.00;4936613;29;20782;-76
2022/02/05 02:58:29;;;;;;;22.43;13.27;;;;;;;11.49;62.24;101318.09;4934199;29;20090;-76
2022/02/05 03:00:59;;;;;;;27.00;14.30;;;;;;;11.44;62.07;101314.41;4929503;29;20106;-76
2022/02/05 03:03:28;;;;;;;23.90;14.30;;;;;;;11.37;62.12;101315.47;4934412;29;20087;-76
2022/02/05 03:05:55;;;;;;;24.53;13.97;;;;;;;11.35;61.88;101308.44;4947515;28;20143;-76
2022/02/05 03:08:22;;;;;;;23.27;15.13;;;;;;;11.17;61.85;101286.50;4963695;28;20052;-76
2022/02/05 03:10:49;;;;;;;23.80;14.00;;;;;;;11.09;61.75;101288.69;4935525;29;20110;-76
2022/02/05 03:13:16;;;;;;;32.00;17.50;;;;;;;11.20;61.91;101311.97;4935565;29;20079;-75
2022/02/05 03:15:45;;;;;;;27.67;15.67;;;;;;;10.94;62.01;101269.00;4931685;29;20056;-78
2022/02/05 03:18:28;;;;;;;26.70;15.27;;;;;;;11.13;62.11;101314.16;4945794;28;20083;-77
2022/02/05 03:20:54;;;;;;;30.17;16.47;;;;;;;11.02;61.90;101298.41;4935199;29;20079;-81
2022/02/05 03:23:22;;;;;;;28.53;16.23;;;;;;;10.87;62.03;101283.19;4942680;28;20047;-81
2022/02/05 03:25:49;;;;;;;24.80;15.87;;;;;;;10.73;61.94;101281.06;4933456;29;20087;-78
2022/02/05 03:28:15;;;;;;;23.40;16.23;;;;;;;10.87;61.94;101310.25;4933096;29;20502;-77
2022/02/05 03:30:43;;;;;;;20.67;15.47;;;;;;;10.90;62.00;101315.31;4957120;28;20048;-75
2022/02/05 03:33:10;;;;;;;35.07;17.33;;;;;;;10.83;61.68;101300.72;4928591;29;20083;-80
2022/02/05 03:35:38;;;;;;;27.43;15.57;;;;;;;10.70;62.00;101301.13;4933759;29;20082;-77
2022/02/05 03:38:04;;;;;;;31.43;16.80;;;;;;;10.64;61.83;101289.09;4936592;29;20075;-78
2022/02/05 03:40:31;;;;;;;26.77;16.07;;;;;;;10.80;61.85;101315.22;4936399;29;20138;-74
2022/02/05 03:42:58;;;;;;;28.47;15.90;;;;;;;10.82;61.64;101325.03;4936093;29;20098;-77
2022/02/05 03:45:25;;;;;;;25.73;16.23;;;;;;;10.82;61.50;101325.03;4928162;29;20251;-74
2022/02/05 03:47:52;;;;;;;26.60;17.10;;;;;;;10.66;61.53;101303.63;4933981;29;20177;-77
2022/02/05 03:50:20;;;;;;;26.83;15.97;;;;;;;10.50;61.44;101274.69;4935670;29;20051;-77
2022/02/05 03:52:47;;;;;;;28.37;16.57;;;;;;;10.51;61.82;101292.28;4931435;29;20162;-75
2022/02/05 03:55:14;;;;;;;26.40;15.47;;;;;;;10.51;62.00;101295.09;4946406;28;20079;-82
2022/02/05 03:57:40;;;;;;;26.93;16.23;;;;;;;10.63;62.17;101316.19;4961419;28;20087;-75
2022/02/05 04:00:08;;;;;;;27.67;14.90;;;;;;;10.62;62.29;101313.63;4932937;29;20131;-78
2022/02/05 04:02:36;;;;;;;26.23;16.37;;;;;;;10.65;62.50;101313.94;4927356;29;20175;-71
2022/02/05 04:05:04;;;;;;;28.47;17.43;;;;;;;10.53;62.83;101292.84;4932162;29;20132;-70
2022/02/05 04:07:35;;;;;;;20.80;15.03;;;;;;;10.72;62.68;101318.50;4933405;29;20126;-70
2022/02/05 04:10:05;;;;;;;26.93;14.57;;;;;;;10.72;62.78;101319.34;4932864;29;20143;-69
2022/02/05 04:18:03;;;;;;;20.80;14.13;;;;;;;10.66;63.37;101293.28;4931456;29;20143;-79
2022/02/05 04:20:34;;;;;;;27.70;13.97;;;;;;;10.85;63.11;101315.28;4919896;29;20083;-79
2022/02/05 04:23:00;;;;;;;;;;;;;;;10.64;63.15;101315.06;4930683;29;20095;-73
2022/02/05 04:25:27;;;;;;;18.43;13.07;;;;;;;10.72;63.24;101307.31;4934237;29;20001;-75
2022/02/05 04:27:55;;;;;;;27.60;15.13;;;;;;;10.81;63.33;101312.19;4930708;29;20574;-74
2022/02/05 04:30:21;;;;;;;23.27;14.13;;;;;;;10.81;63.20;101316.91;4933581;29;22651;-74
2022/02/05 04:32:49;;;;;;;23.13;13.50;;;;;;;10.68;63.27;101291.09;4930313;29;20567;-82
2022/02/05 04:35:21;;;;;;;20.83;14.00;;;;;;;10.65;63.08;101287.97;4932798;29;20107;-81
2022/02/05 04:37:52;;;;;;;28.90;15.93;;;;;;;10.85;63.10;101312.50;4934077;29;20107;-82
2022/02/05 04:43:00;;;;;;;26.07;15.03;;;;;;;10.63;62.95;101285.47;4933002;29;20086;-75
2022/02/05 04:55:47;;;;;;;29.03;16.87;;;;;;;10.91;63.39;101300.25;4935748;29;20087;-79
2022/02/05 05:01:03;;;;;;;29.43;16.30;;;;;;;10.94;63.31;101302.53;4932658;29;20057;-79
2022/02/05 05:03:47;;;;;;;25.17;14.27;;;;;;;10.90;63.48;101302.19;4942091;28;21439;-75
2022/02/05 05:19:46;;;;;;;27.33;15.00;;;;;;;10.98;63.02;101311.22;4928685;29;20079;-75
2022/02/05 05:22:15;;;;;;;22.37;15.10;;;;;;;10.70;62.93;101259.25;4924017;29;20110;-75
2022/02/05 05:24:43;;;;;;;22.20;14.23;;;;;;;10.85;63.10;101290.13;4933149;29;20138;-74
2022/02/05 05:27:10;;;;;;;27.37;16.67;;;;;;;10.91;63.01;101323.44;4934932;29;20188;-74
2022/02/05 05:29:37;;;;;;;31.63;16.83;;;;;;;10.76;62.90;101305.69;4936082;29;20143;-75
2022/02/05 05:32:05;;;;;;;27.23;15.93;;;;;;;10.60;62.66;101288.78;4940065;29;20075;-79
2022/02/05 05:34:32;;;;;;;22.50;15.00;;;;;;;10.55;62.38;101301.81;4941004;29;20128;-80
2022/02/05 05:37:03;;;;;;;25.67;15.23;;;;;;;10.62;61.97;101331.22;4942875;29;20131;-78
2022/02/05 05:39:35;;;;;;;24.97;16.03;;;;;;;10.54;62.02;101334.50;4960362;29;20061;-81
2022/02/05 05:42:16;;;;;;;22.30;15.33;;;;;;;10.38;61.72;101315.88;4961085;29;20028;-80
2022/02/05 05:50:00;;;;;;;27.10;16.87;;;;;;;10.30;61.58;101333.09;4960380;29;20067;-77
2022/02/05 05:52:28;;;;;;;24.33;18.57;;;;;;;10.18;61.77;101324.78;4958675;29;20032;-76
2022/02/05 05:54:55;;;;;;;23.47;19.43;;;;;;;10.19;61.59;101327.34;4953556;29;20075;-78
2022/02/05 05:57:21;;;;;;;30.57;18.33;;;;;;;10.19;61.34;101327.34;4959471;29;20027;-80
2022/02/05 05:59:49;;;;;;;30.37;18.70;;;;;;;10.20;61.56;101331.81;4937651;29;20050;-81
2022/02/05 06:02:15;;;;;;;25.03;16.73;;;;;;;10.17;61.32;101329.53;4933025;29;20126;-81
2022/02/05 06:04:42;;;;;;;27.07;18.20;;;;;;;10.13;61.19;101316.38;4930632;29;20086;-81
2022/02/05 06:07:09;;;;;;;23.73;18.23;;;;;;;10.16;61.28;101339.03;4934498;29;20083;-79
2022/02/05 06:09:40;;;;;;;26.33;18.53;;;;;;;10.17;61.12;101337.91;4935817;29;20058;-80
2022/02/05 06:12:09;;;;;;;25.93;16.57;;;;;;;10.18;61.24;101322.84;4936025;29;20143;-80
2022/02/05 06:14:35;;;;;;;26.43;16.20;;;;;;;9.97;61.53;101301.34;4935577;29;20434;-80
2022/02/05 06:17:07;;;;;;;20.50;13.93;;;;;;;10.06;61.72;101327.72;4918006;29;20130;-83
2022/02/05 06:19:37;;;;;;;21.00;13.10;;;;;;;9.87;62.50;101329.13;4935162;29;20142;-82
2022/02/05 06:22:06;;;;;;;35.13;14.40;;;;;;;9.88;62.82;101328.88;4934347;29;20566;-81
2022/02/05 06:24:33;;;;;;;22.97;14.73;;;;;;;10.00;62.57;101328.75;4936316;29;20407;-76
2022/02/05 06:27:00;;;;;;;22.10;13.97;;;;;;;10.04;62.62;101337.44;4935365;29;20051;-79
2022/02/05 06:29:27;;;;;;;23.03;14.40;;;;;;;10.15;62.28;101340.13;4933701;29;20060;-77
2022/02/05 06:31:54;;;;;;;28.17;17.40;;;;;;;10.21;62.53;101352.19;4931810;29;20143;-79
2022/02/05 06:34:21;;;;;;;29.57;17.13;;;;;;;10.25;62.61;101344.13;4935685;29;20131;-80
2022/02/05 06:36:48;;;;;;;23.40;15.63;;;;;;;10.19;62.64;101327.34;4926816;29;20052;-76
2022/02/05 06:39:15;;;;;;;23.63;16.53;;;;;;;10.04;62.55;101298.38;4929711;29;20435;-75
2022/02/05 06:41:42;;;;;;;25.30;17.00;;;;;;;10.30;62.58;101339.50;4938187;28;20051;-75
2022/02/05 06:44:09;;;;;;;27.90;17.00;;;;;;;10.30;62.29;101347.03;4935849;29;20130;-74
2022/02/05 06:46:36;;;;;;;21.00;14.13;;;;;;;10.32;61.96;101339.25;4929993;29;20059;-79
2022/02/05 06:49:04;;;;;;;24.73;16.13;;;;;;;10.33;61.92;101349.31;4933168;29;20138;-76
2022/02/05 06:51:31;;;;;;;29.67;16.00;;;;;;;10.31;61.86;101340.34;4928156;29;20051;-76
2022/02/05 06:53:58;;;;;;;27.83;15.63;;;;;;;10.19;61.85;101327.34;4936769;29;20055;-77
2022/02/05 06:56:26;;;;;;;23.43;14.87;;;;;;;10.29;61.66;101346.22;4936091;29;20107;-77
2022/02/05 06:58:53;;;;;;;21.47;14.23;;;;;;;10.26;61.49;101345.88;4929223;29;20082;-79
2022/02/05 07:01:19;;;;;;;18.97;13.63;;;;;;;9.98;61.27;101308.63;4964493;28;20419;-80
2022/02/05 07:03:46;;;;;;;24.40;16.30;;;;;;;9.69;61.13;101266.09;4934219;29;20163;-80
2022/02/05 07:06:14;;;;;;;23.47;15.27;;;;;;;10.12;61.57;101353.72;4935917;29;20467;-79
2022/02/05 07:08:42;;;;;;;24.50;15.37;;;;;;;10.09;61.75;101348.69;4931448;29;20099;-81
2022/02/05 07:11:09;;;;;;;29.63;15.90;;;;;;;10.07;61.56;101353.69;4934875;29;20051;-79
2022/02/05 07:13:36;;;;;;;28.77;15.23;;;;;;;10.00;61.70;101350.22;4933203;29;20150;-81
2022/02/05 07:16:18;;;;;;;19.70;15.47;;;;;;;9.94;61.32;101364.09;4933601;29;20134;-80
2022/02/05 07:21:20;;;;;;;26.95;16.17;;;;;;;9.72;61.15;101336.16;4934031;29;20511;-81
2022/02/05 07:29:17;;;;;;;24.87;14.37;;;;;;;9.78;60.92;101358.53;4944891;29;20052;-74
2022/02/05 07:31:52;;;;;;;23.87;15.17;;;;;;;9.72;60.80;101366.84;4931991;29;20082;-77
2022/02/05 07:34:24;;;;;;;26.57;16.63;;;;;;;9.62;60.78;101375.06;4940378;29;20139;-80
2022/02/05 07:36:51;;;;;;;23.93;17.70;;;;;;;9.30;61.02;101329.34;4961272;28;20482;-73
2022/02/05 07:39:23;;;;;;;24.00;17.03;;;;;;;9.49;60.91;101372.59;4935082;29;20123;-73
2022/02/05 07:41:50;;;;;;;21.13;14.82;;;;;;;9.49;61.06;101378.19;4933951;29;20519;-74
2022/02/05 07:44:17;;;;;;;21.13;14.03;;;;;;;9.55;61.25;101379.97;4932738;29;20048;-75
2022/02/05 07:46:48;;;;;;;26.03;14.23;;;;;;;9.60;61.44;101384.75;4933078;29;20052;-75
2022/02/05 07:49:19;;;;;;;25.37;16.20;;;;;;;9.61;61.66;101383.69;4935126;29;20043;-77
2022/02/05 07:51:46;;;;;;;28.37;18.30;;;;;;;9.66;61.42;101376.22;4934284;29;20126;-80
2022/02/05 07:54:13;;;;;;;23.40;15.33;;;;;;;9.69;61.33;101383.25;4933764;28;20134;-75
2022/02/05 07:56:45;;;;;;;29.60;15.37;;;;;;;9.59;61.24;101372.75;4929119;29;20059;-76
2022/02/05 07:59:12;;;;;;;23.00;15.70;;;;;;;9.61;61.13;101373.38;4927512;29;20476;-79
2022/02/05 08:01:40;;;;;;;24.47;16.03;;;;;;;9.44;61.21;101364.16;4931234;29;20056;-79
2022/02/05 08:04:08;;;;;;;22.10;15.80;;;;;;;9.48;61.19;101387.66;4932184;29;20051;-76
2022/02/05 08:06:35;;;;;;;23.47;14.47;;;;;;;9.54;61.29;101397.78;4935092;29;20497;-75
2022/02/05 08:09:11;;;;;;;25.93;16.27;;;;;;;9.58;61.28;101390.59;4934833;29;20511;-72
2022/02/05 08:14:29;;;;;;;19.73;12.07;;;;;;;9.50;60.99;101391.00;4930721;29;20064;-73
2022/02/05 08:17:03;;;;;;;26.47;14.67;;;;;;;9.52;60.85;101386.03;4929361;29;20055;-73
2022/02/05 08:19:30;;;;;;;23.43;15.87;;;;;;;9.38;61.43;101359.59;4924919;29;20040;-74
2022/02/05 08:22:15;;;;;;;21.57;12.70;;;;;;;9.73;61.85;101398.38;4926538;29;20091;-75
2022/02/05 08:24:42;;;;;;;12.37;8.70;;;;;;;9.79;62.80;101408.50;4930668;29;20103;-74
2022/02/05 08:27:09;;;;;;;16.23;10.10;;;;;;;9.93;62.42;101400.63;4926253;29;20079;-73
2022/02/05 08:29:39;;;;;;;29.63;16.63;;;;;;;10.17;62.14;101398.47;4925734;29;20464;-73
2022/02/05 08:32:06;;;;;;;23.58;15.60;;;;;;;10.27;61.91;101401.44;4927925;29;20099;-73
2022/02/05 08:34:33;;;;;;;29.13;16.37;;;;;;;10.27;61.40;101395.03;4923529;29;20123;-74
2022/02/05 08:37:00;;;;;;;25.07;16.57;;;;;;;10.54;61.15;101423.03;4927211;29;20182;-75
2022/02/05 08:39:27;;;;;;;20.93;13.67;;;;;;;10.86;61.30;101414.75;4928482;29;20107;-75
2022/02/05 08:41:54;;;;;;;24.57;14.17;;;;;;;11.32;61.01;101418.06;4931932;29;20155;-74
2022/02/05 08:44:21;;;;;;;22.67;13.50;;;;;;;11.90;60.87;101407.09;4932646;29;20099;-75
2022/02/05 08:46:48;;;;;;;25.90;12.37;;;;;;;12.21;60.15;101346.56;4931241;29;20044;-75
2022/02/05 08:49:15;;;;;;;17.90;10.83;;;;;;;13.23;59.68;101419.78;4961042;28;20123;-74
2022/02/05 08:51:42;;;;;;;14.60;8.70;;;;;;;13.80;58.67;101412.28;4948334;28;20134;-74
2022/02/05 08:54:09;;;;;;;12.90;9.70;;;;;;;14.34;57.94;101400.41;4931593;29;20404;-74
2022/02/05 08:56:36;;;;;;;14.03;9.80;;;;;;;15.04;56.72;101420.09;4929724;29;20290;-75
2022/02/05 08:59:04;;;;;;;17.77;13.00;;;;;;;15.64;55.91;101421.69;4944971;28;20071;-74
2022/02/05 09:06:51;;;;;;;17.17;11.40;;;;;;;17.05;53.15;101419.66;4928966;29;20071;-74
2022/02/05 09:09:33;;;;;;;17.85;12.98;;;;;;;17.46;52.36;101418.22;4932105;29;20107;-75
2022/02/05 09:14:40;;;;;;;13.23;9.15;;;;;;;18.26;50.74;101408.72;4931808;29;20059;-75
2022/02/05 09:17:07;;;;;;;13.80;9.55;;;;;;;17.86;50.40;101376.38;4934961;29;20146;-76
2022/02/05 09:19:35;;;;;;;18.88;13.10;;;;;;;17.57;50.26;101439.50;4932939;29;20099;-77
2022/02/05 09:22:06;;;;;;;;;;;;;;;16.72;51.35;101435.59;4934779;29;20051;-74
2022/02/05 09:24:36;;;;;;;17.77;11.38;;;;;;;16.49;51.66;101436.44;4949000;29;20017;-74
2022/02/05 09:27:06;;;;;;;18.80;11.82;;;;;;;16.21;50.94;101426.88;4930594;29;20078;-74
2022/02/05 09:29:59;;;;;;;15.65;11.20;;;;;;;15.90;50.87;101437.56;4931723;29;20048;-76
2022/02/05 09:32:27;;;;;;;15.73;12.95;;;;;;;15.51;50.65;101441.22;4932694;29;20218;-79
2022/02/05 09:34:54;;;;;;;20.77;14.82;;;;;;;15.25;50.79;101416.06;4929837;29;21675;-76
2022/02/05 09:37:21;;;;;;;24.98;20.33;;;;;;;15.21;50.58;101450.69;4931656;29;20454;-76
2022/02/05 09:39:49;;;;;;;24.98;14.52;;;;;;;15.12;51.05;101448.50;4933884;29;20492;-75
2022/02/05 09:42:19;;;;;;;21.03;16.50;;;;;;;15.05;51.24;101452.75;4924243;29;20075;-77
2022/02/05 09:44:46;;;;;;;19.95;13.50;;;;;;;15.11;51.45;101451.56;4933290;29;20139;-73
2022/02/05 09:47:21;;;;;;;27.50;16.33;;;;;;;15.09;51.43;101440.63;4928762;29;20087;-76
2022/02/05 09:49:51;;;;;;;23.95;15.38;;;;;;;15.26;51.31;101454.31;4929316;29;20085;-74
2022/02/05 09:52:25;;;;;;;26.40;16.38;;;;;;;15.31;51.83;101450.63;4927768;29;20138;-75
2022/02/05 09:54:53;;;;;;;23.00;14.80;;;;;;;15.26;51.22;101442.22;4927846;29;20198;-73
2022/02/05 09:57:21;;;;;;;19.58;14.18;;;;;;;15.36;51.38;101457.06;4933097;29;20063;-73
2022/02/05 09:59:57;;;;;;;;;;;;;;;15.34;51.91;101461.31;4933909;29;20047;-72
2022/02/05 10:02:38;;;;;;;15.50;10.33;;;;;;;15.51;51.66;101469.38;4933188;29;19990;-72
2022/02/05 10:05:11;;;;;;;21.17;12.50;;;;;;;15.63;51.32;101462.25;4959476;29;20068;-72
2022/02/05 10:07:59;;;;;;;21.42;16.15;;;;;;;15.68;51.32;101458.56;4940446;29;20546;-72
2022/02/05 10:10:41;;;;;;;26.08;20.27;;;;;;;15.75;51.61;101467.53;4937397;29;20084;-73
2022/02/05 10:13:18;;;;;;;26.90;20.58;;;;;;;15.78;51.81;101463.28;4927459;29;20490;-73
2022/02/05 10:15:54;;;;;;;31.30;21.20;;;;;;;15.67;51.86;101468.16;4928870;29;20123;-73
2022/02/05 10:18:38;;;;;;;32.50;19.42;;;;;;;15.56;52.26;101444.84;4936381;29;20056;-73
2022/02/05 10:21:23;;;;;;;35.50;20.55;;;;;;;15.48;52.20;101433.34;4933647;29;20087;-74
2022/02/05 10:24:08;;;;;;;35.20;20.33;;;;;;;15.80;51.75;101466.66;4933705;29;20052;-74
2022/02/05 10:26:39;;;;;;;31.80;22.98;;;;;;;15.90;51.83;101482.63;4932714;29;20138;-73
2022/02/05 10:29:13;;;;;;;37.55;22.35;;;;;;;16.15;51.59;101468.34;4936405;28;20048;-73
2022/02/05 10:32:15;;;;;;;38.85;22.38;;;;;;;16.74;51.34;101461.53;4964170;28;20051;-73
2022/02/05 10:35:16;;;;;;;37.42;23.15;;;;;;;17.48;51.04;101439.38;4927086;29;20048;-73
2022/02/05 10:37:49;;;;;;;33.63;21.77;;;;;;;18.48;50.06;101462.56;4936324;28;20138;-73
2022/02/05 10:40:29;;;;;;;24.58;17.70;;;;;;;19.22;48.92;101461.66;4938237;29;20075;-73
2022/02/05 10:43:03;;;;;;;21.25;14.60;;;;;;;20.07;47.89;101476.13;4932991;29;20051;-74
2022/02/05 10:45:51;;;;;;;21.50;13.88;;;;;;;20.65;47.35;101445.91;4937287;29;20537;-73
2022/02/05 10:48:20;;;;;;;16.42;12.55;;;;;;;21.38;45.91;101450.03;4938092;29;20135;-74
2022/02/05 10:50:49;;;;;;;14.88;11.55;;;;;;;22.03;45.13;101458.72;4934320;29;20523;-74
2022/02/05 10:53:33;;;;;;;15.75;11.18;;;;;;;22.38;44.31;101433.91;4935081;29;20139;-73
2022/02/05 10:59:31;;;;;;;16.52;9.85;;;;;;;23.53;43.18;101453.78;4935730;29;20474;-73
2022/02/05 11:05:17;;;;;;;10.63;7.45;;;;;;;24.49;40.29;101473.75;4931764;29;20056;-73
2022/02/05 11:07:45;;;;;;;9.02;7.07;;;;;;;24.78;39.66;101447.84;4936318;29;20134;-74
2022/02/05 11:10:30;;;;;;;12.27;7.45;;;;;;;25.25;39.07;101467.41;4936750;29;20079;-73
2022/02/05 11:21:37;;;;;;;9.00;7.35;;;;;;;26.49;36.19;101436.38;4932587;29;20055;-73
2022/02/05 11:24:06;;;;;;;12.35;7.32;;;;;;;26.81;35.24;101458.13;4936314;29;20101;-73
2022/02/05 11:26:34;;;;;;;14.30;7.82;;;;;;;26.96;34.83;101453.59;4935623;29;20079;-73
2022/02/05 11:29:03;;;;;;;12.65;7.85;;;;;;;27.14;34.10;101454.88;4936097;29;20143;-74
2022/02/05 11:31:39;;;;;;;10.02;7.63;;;;;;;27.14;34.05;101449.16;4935214;29;20055;-75
2022/02/05 11:34:49;;;;;;;13.40;8.23;;;;;;;27.38;33.87;101447.25;4934463;29;20139;-74
2022/02/05 11:37:19;;;;;;;10.18;7.55;;;;;;;27.58;33.25;101453.84;4928537;29;20513;-75
2022/02/05 11:39:54;;;;;;;14.07;8.50;;;;;;;27.38;33.16;101450.13;4930983;29;20087;-74
2022/02/05 11:42:29;;;;;;;10.55;8.35;;;;;;;27.41;32.69;101449.38;4933077;29;20047;-74
2022/02/05 11:44:58;;;;;;;11.52;8.45;;;;;;;27.56;32.51;101448.50;4936369;29;20090;-73
2022/02/05 11:47:27;;;;;;;15.57;9.95;;;;;;;27.76;31.79;101425.59;4964342;28;20063;-75
2022/02/05 11:49:55;;;;;;;11.63;9.15;;;;;;;28.03;31.65;101458.97;4934007;29;20058;-74
2022/02/05 11:52:37;;;;;;;13.68;9.30;;;;;;;28.26;31.80;101446.72;4929978;29;20591;-74
2022/02/05 11:55:07;;;;;;;13.45;9.30;;;;;;;28.23;30.89;101419.56;4935571;29;20138;-75
2022/02/05 11:57:43;;;;;;;10.82;8.43;;;;;;;28.74;30.75;101444.34;4926906;29;20052;-71
2022/02/05 12:00:23;;;;;;;11.57;7.97;;;;;;;29.03;29.83;101440.78;4925529;29;20246;-73
2022/02/05 12:03:03;;;;;;;13.07;8.25;;;;;;;29.22;29.63;101441.91;4927926;29;20059;-74
2022/02/05 12:05:36;;;;;;;8.75;7.40;;;;;;;29.43;28.65;101412.63;4929247;29;20138;-74
2022/02/05 12:08:06;;;;;;;9.45;7.35;;;;;;;29.73;28.72;101447.19;4945832;28;20055;-73
2022/02/05 12:10:36;;;;;;;9.93;7.60;;;;;;;29.89;28.18;101418.22;4931377;29;20567;-74
2022/02/05 12:13:24;;;;;;;8.85;7.25;;;;;;;30.29;27.32;101411.72;4929238;29;20051;-74
2022/02/05 12:15:54;;;;;;;11.98;7.60;;;;;;;30.66;26.83;101422.34;4931197;29;20142;-74
2022/02/05 12:18:27;;;;;;;10.13;7.43;;;;;;;30.78;26.08;101419.22;4926608;29;20126;-75
2022/02/05 12:21:15;;;;;;;9.48;7.40;;;;;;;30.90;26.25;101421.75;4922387;29;20503;-75
2022/02/05 12:26:26;;;;;;;7.85;6.63;;;;;;;31.37;25.19;101408.53;4925712;29;20052;-72
2022/02/05 12:28:57;;;;;;;9.35;6.90;;;;;;;31.84;24.99;101406.72;4926860;29;20486;-72
2022/02/05 12:31:25;;;;;;;13.20;7.80;;;;;;;32.28;24.06;101419.28;4924474;29;20499;-73
2022/02/05 12:34:01;;;;;;;9.48;7.78;;;;;;;32.48;24.15;101388.78;4924152;29;20059;-73
2022/02/05 12:36:59;;;;;;;13.25;7.13;;;;;;;33.06;24.07;101401.19;4929153;29;20118;-71
2022/02/05 12:39:34;;;;;;;12.48;7.68;;;;;;;33.18;23.79;101400.75;4942394;29;20079;-71
2022/02/05 12:42:12;;;;;;;7.75;5.60;;;;;;;33.22;22.47;101410.25;4929887;29;20484;-75
2022/02/05 12:44:40;;;;;;;9.18;6.57;;;;;;;33.09;22.56;101411.09;4934049;29;20075;-73
2022/02/05 12:47:32;;;;;;;9.15;6.60;;;;;;;32.61;22.31;101406.53;4924896;29;20438;-74
2022/02/05 12:50:08;;;;;;;8.90;6.72;;;;;;;31.90;22.23;101401.41;4924785;29;20142;-74
2022/02/05 12:52:36;;;;;;;9.18;7.10;;;;;;;31.88;22.98;101405.94;4950489;28;20301;-73
2022/02/05 12:55:04;;;;;;;8.13;6.15;;;;;;;32.14;22.46;101408.50;4923216;29;20135;-74
2022/02/05 12:57:32;;;;;;;8.23;6.32;;;;;;;32.54;22.09;101406.53;4923937;29;20151;-75
2022/02/05 13:00:12;;;;;;;9.90;6.93;;;;;;;32.79;21.93;101395.81;4930111;29;20044;-76
2022/02/05 13:02:39;;;;;;;8.60;5.47;;;;;;;32.88;21.41;101394.56;4930083;29;20047;-75
2022/02/05 13:05:06;;;;;;;10.35;7.18;;;;;;;33.23;21.19;101393.69;4932282;29;20138;-75
2022/02/05 13:07:41;;;;;;;8.20;5.25;;;;;;;33.58;21.12;101384.13;4924468;29;20047;-75
2022/02/05 13:10:08;;;;;;;6.75;5.25;;;;;;;33.59;20.84;101385.78;4923081;29;20131;-74
2022/02/05 13:12:39;;;;;;;6.97;5.63;;;;;;;33.49;20.60;101372.97;4927123;29;20142;-74
2022/02/05 13:15:27;;;;;;;7.22;5.97;;;;;;;33.15;20.75;101369.75;4932830;29;20138;-74
2022/02/05 13:34:26;;;;;;;6.15;4.70;;;;;;;35.07;19.10;101355.38;4924459;29;20052;-76
2022/02/05 13:40:01;;;;;;;8.45;4.35;;;;;;;30.84;22.42;101336.88;4925320;29;20139;-71
2022/02/05 13:42:40;;;;;;;7.15;4.95;;;;;;;29.28;23.39;101346.25;4928066;29;20051;-70
2022/02/05 13:45:13;;;;;;;6.68;4.50;;;;;;;27.89;24.72;101332.38;4930103;29;20103;-74
2022/02/05 13:47:45;;;;;;;7.55;4.13;;;;;;;26.97;25.04;101340.59;4928348;29;20138;-89
2022/02/05 13:50:22;;;;;;;11.55;5.38;;;;;;;25.51;26.11;101271.72;4931206;29;20219;-83
2022/02/05 13:52:54;;;;;;;6.65;4.63;;;;;;;24.96;26.60;101305.59;4960194;29;20040;-79
2022/02/05 13:55:23;;;;;;;7.25;4.50;;;;;;;24.49;27.45;101342.41;4960031;29;20032;-79
2022/02/05 13:57:58;;;;;;;5.72;4.18;;;;;;;23.85;27.81;101324.66;4953727;29;20047;-83
2022/02/05 14:00:36;;;;;;;7.50;3.95;;;;;;;23.17;28.63;101332.66;4954806;28;20063;-76
2022/02/05 14:03:05;;;;;;;6.03;4.10;;;;;;;22.70;29.17;101335.63;4955811;29;20047;-82
2022/02/05 14:05:32;;;;;;;7.80;4.60;;;;;;;21.74;29.12;101266.91;4947891;29;20060;-80
2022/02/05 14:07:59;;;;;;;7.20;4.53;;;;;;;21.62;29.59;101289.53;4953185;29;20059;-85
2022/02/05 14:10:26;;;;;;;10.68;4.32;;;;;;;21.55;30.07;101324.16;4952623;29;20083;-78
2022/02/05 14:12:56;;;;;;;11.73;5.20;;;;;;;21.27;30.36;101315.97;4937773;29;20103;-80
2022/02/05 14:15:26;;;;;;;8.23;4.30;;;;;;;20.87;31.09;101292.56;4932787;29;20352;-88
2022/02/05 14:18:12;;;;;;;7.40;4.90;;;;;;;20.72;31.18;101308.06;4935188;29;20075;-85
2022/02/05 14:20:56;;;;;;;11.25;5.88;;;;;;;20.56;31.55;101315.38;4930351;29;20570;-76
2022/02/05 14:23:29;;;;;;;15.93;7.90;;;;;;;20.47;31.85;101303.13;4932374;29;20051;-76
2022/02/05 14:26:22;;;;;;;8.07;4.65;;;;;;;20.07;31.81;101269.97;4932798;29;20579;-76
2022/02/05 14:28:53;;;;;;;6.10;4.00;;;;;;;19.94;32.43;101281.41;4931403;29;20135;-76
2022/02/05 14:42:08;;;;;;;7.75;5.35;;;;;;;19.54;35.20;101289.81;4930278;29;20143;-80